Time;durP1;ratioP1;P1;durP2;ratioP2;P2;SDS_P1;SDS_P2;PMS_P1;PMS_P2;Temp;Humidity;BMP_temperature;BMP_pressure;BME280_temperature;BME280_humidity;BME280_pressure;Samples;Min_cycle;Max_cycle;Signal;HPM_P1;HPM_P2
2023/01/09 00:01:55;;;;;;;0.73;0.70;;;;;;;5.67;100.00;99299.78;5030274;28;20033;-72
2023/01/09 00:04:21;;;;;;;0.82;0.80;;;;;;;5.63;100.00;99301.84;5028535;28;20052;-72
2023/01/09 00:06:52;;;;;;;1.65;0.85;;;;;;;5.59;100.00;99298.53;5016016;28;20025;-71
2023/01/09 00:09:19;;;;;;;1.88;1.00;;;;;;;5.57;100.00;99302.31;5050848;28;20500;-71
2023/01/09 00:11:45;;;;;;;2.25;0.80;;;;;;;5.52;100.00;99294.59;5052087;28;20430;-71
2023/01/09 00:14:10;;;;;;;0.70;0.70;;;;;;;5.49;100.00;99305.59;5046354;28;20029;-72
2023/01/09 00:16:35;;;;;;;0.80;0.80;;;;;;;5.43;100.00;99307.91;5038852;28;20372;-71
2023/01/09 00:19:01;;;;;;;0.95;0.95;;;;;;;5.40;100.00;99321.63;5040170;28;20462;-71
2023/01/09 00:21:26;;;;;;;2.97;0.73;;;;;;;5.31;100.00;99315.09;5030923;28;20026;-74
2023/01/09 00:23:53;;;;;;;1.33;0.80;;;;;;;5.27;100.00;99319.88;5032160;28;20133;-71
2023/01/09 00:26:19;;;;;;;1.75;0.85;;;;;;;5.25;100.00;99329.03;5031953;28;20061;-71
2023/01/09 00:28:46;;;;;;;1.02;0.80;;;;;;;5.19;100.00;99324.97;5030305;28;20473;-73
2023/01/09 00:31:12;;;;;;;0.65;0.65;;;;;;;5.16;100.00;99335.13;5030187;28;20107;-71
2023/01/09 00:33:44;;;;;;;2.42;1.20;;;;;;;5.13;100.00;99328.13;5044825;28;20477;-71
2023/01/09 00:36:10;;;;;;;1.30;0.80;;;;;;;5.10;100.00;99328.34;5030563;28;20034;-72
2023/01/09 00:38:36;;;;;;;1.00;0.80;;;;;;;5.02;100.00;99319.97;5030025;28;20047;-74
2023/01/09 00:41:04;;;;;;;2.05;0.93;;;;;;;4.99;100.00;99326.47;5030262;28;20459;-71
2023/01/09 00:43:37;;;;;;;1.20;1.10;;;;;;;4.94;100.00;99328.59;5037873;28;20371;-73
2023/01/09 00:46:05;;;;;;;0.80;0.80;;;;;;;4.91;100.00;99328.84;5041180;28;20444;-71
2023/01/09 00:48:32;;;;;;;1.25;0.95;;;;;;;4.85;100.00;99327.47;5031485;28;20041;-72
2023/01/09 00:50:58;;;;;;;1.52;0.95;;;;;;;4.83;100.00;99326.72;5031812;28;20111;-72
2023/01/09 00:53:28;;;;;;;0.77;0.77;;;;;;;4.80;100.00;99326.94;5031260;28;20064;-71
2023/01/09 00:55:56;;;;;;;1.15;1.05;;;;;;;4.78;100.00;99326.19;5031332;28;20052;-71
2023/01/09 00:58:22;;;;;;;1.20;1.10;;;;;;;4.73;100.00;99317.59;5031241;28;20045;-72
2023/01/09 01:00:48;;;;;;;2.45;1.10;;;;;;;4.71;100.00;99329.44;5035382;28;20024;-70
2023/01/09 01:03:13;;;;;;;2.25;1.20;;;;;;;4.67;100.00;99330.66;5049097;28;20037;-71
2023/01/09 01:08:23;;;;;;;2.30;1.00;;;;;;;4.65;100.00;99335.28;5030432;28;20384;-71
2023/01/09 01:10:48;;;;;;;4.45;0.98;;;;;;;4.60;100.00;99333.75;5029965;28;20274;-71
2023/01/09 01:13:14;;;;;;;5.97;1.10;;;;;;;4.59;100.00;99331.19;5031174;28;20037;-71
2023/01/09 01:15:41;;;;;;;2.70;1.17;;;;;;;4.57;100.00;99333.16;5012435;28;20212;-71
2023/01/09 01:18:08;;;;;;;1.55;1.02;;;;;;;4.53;100.00;99328.94;5034534;28;20507;-70
2023/01/09 01:20:34;;;;;;;2.47;1.00;;;;;;;4.51;100.00;99342.50;5031139;28;20346;-70
2023/01/09 01:22:59;;;;;;;3.83;1.42;;;;;;;4.51;100.00;99344.34;5029771;28;20043;-71
2023/01/09 01:25:25;;;;;;;2.60;1.13;;;;;;;4.49;100.00;99346.28;5029710;28;20444;-72
2023/01/09 01:27:50;;;;;;;2.58;1.10;;;;;;;4.48;100.00;99353.53;5012983;28;20037;-71
2023/01/09 01:30:17;;;;;;;2.80;1.00;;;;;;;4.41;100.00;99351.34;5029327;28;20041;-70
2023/01/09 01:32:43;;;;;;;2.40;1.13;;;;;;;4.42;100.00;99353.94;5040526;28;20557;-71
2023/01/09 01:35:09;;;;;;;2.72;1.17;;;;;;;4.37;100.00;99355.22;5031476;28;20037;-71
2023/01/09 01:37:35;;;;;;;5.10;1.25;;;;;;;4.37;100.00;99352.53;5029264;28;20037;-71
2023/01/09 01:40:01;;;;;;;2.10;1.20;;;;;;;4.35;100.00;99358.03;5030465;28;20467;-71
2023/01/09 01:42:26;;;;;;;3.30;1.33;;;;;;;4.34;100.00;99348.25;5029314;28;20041;-71
2023/01/09 01:44:57;;;;;;;1.52;1.02;;;;;;;4.30;100.00;99347.59;5028792;28;20441;-71
2023/01/09 01:47:37;;;;;;;3.58;1.10;;;;;;;4.24;100.00;99350.75;5030378;28;20029;-72
2023/01/09 01:50:08;;;;;;;6.00;1.42;;;;;;;4.20;100.00;99351.06;5029177;28;20033;-70
2023/01/09 01:52:36;;;;;;;2.85;1.30;;;;;;;4.23;100.00;99377.75;5030510;28;20038;-71
2023/01/09 01:55:03;;;;;;;4.60;1.33;;;;;;;4.18;100.00;99369.13;5030213;28;20053;-71
2023/01/09 01:57:31;;;;;;;5.50;1.38;;;;;;;4.18;100.00;99370.00;5029169;28;20373;-71
2023/01/09 01:59:58;;;;;;;3.03;1.60;;;;;;;4.17;100.00;99364.72;5030007;28;20033;-71
2023/01/09 02:02:28;;;;;;;2.45;1.58;;;;;;;4.15;100.00;99366.63;5030189;28;20033;-71
2023/01/09 02:04:55;;;;;;;3.92;1.45;;;;;;;4.14;100.00;99373.84;5029961;28;20030;-73
2023/01/09 02:07:21;;;;;;;4.70;1.50;;;;;;;4.12;100.00;99361.50;5029712;28;20025;-71
2023/01/09 02:09:47;;;;;;;1.95;1.33;;;;;;;4.06;100.00;99365.47;5029956;28;20095;-71
2023/01/09 02:12:24;;;;;;;3.50;1.48;;;;;;;4.03;100.00;99368.38;5028565;28;20042;-72
2023/01/09 02:14:57;;;;;;;3.10;1.15;;;;;;;3.96;100.00;99372.44;5029640;28;20033;-71
2023/01/09 02:18:04;;;;;;;2.00;1.58;;;;;;;3.94;100.00;99367.16;5029716;28;20045;-71
2023/01/09 02:20:29;;;;;;;2.75;1.20;;;;;;;3.89;100.00;99373.84;5048025;28;20453;-71
2023/01/09 02:23:14;;;;;;;4.30;1.58;;;;;;;3.87;100.00;99376.66;5038392;28;20037;-70
2023/01/09 02:26:07;;;;;;;2.47;1.63;;;;;;;3.84;100.00;99366.94;5011673;28;20452;-72
2023/01/09 02:28:42;;;;;;;;;;;;;;;3.83;100.00;99373.31;5029586;28;20120;-70
2023/01/09 02:31:39;;;;;;;2.97;1.30;;;;;;;3.77;100.00;99360.25;5036733;28;20368;-71
2023/01/09 02:34:23;;;;;;;2.97;1.25;;;;;;;3.75;100.00;99366.72;5032643;28;20075;-71
2023/01/09 02:36:59;;;;;;;4.32;1.55;;;;;;;3.75;100.00;99362.19;5030882;28;20140;-71
2023/01/09 02:39:32;;;;;;;3.22;1.70;;;;;;;3.75;100.00;99358.66;5031697;28;20040;-71
2023/01/09 02:42:07;;;;;;;;;;;;;;;3.74;100.00;99362.31;5048897;28;20036;-72
2023/01/09 02:44:34;;;;;;;2.70;1.42;;;;;;;3.68;100.00;99358.19;5047396;28;19917;-70
2023/01/09 02:47:13;;;;;;;3.20;1.35;;;;;;;3.67;100.00;99361.84;5028189;28;20351;-71
2023/01/09 02:49:41;;;;;;;1.67;1.30;;;;;;;3.64;100.00;99355.81;5039904;28;20052;-71
2023/01/09 02:52:37;;;;;;;10.80;2.00;;;;;;;3.63;100.00;99357.63;5043899;28;20457;-71
2023/01/09 02:55:08;;;;;;;2.38;1.52;;;;;;;3.61;100.00;99356.91;5028018;28;20392;-70
2023/01/09 02:57:54;;;;;;;4.60;1.52;;;;;;;3.57;100.00;99348.16;5027790;28;20136;-71
2023/01/09 03:00:46;;;;;;;3.67;1.23;;;;;;;3.56;100.00;99345.59;5027452;28;20460;-71
2023/01/09 03:03:26;;;;;;;4.35;1.63;;;;;;;3.49;100.00;99342.44;5011301;28;20291;-71
2023/01/09 03:06:37;;;;;;;2.85;1.30;;;;;;;3.45;100.00;99332.88;5029296;28;20045;-71
2023/01/09 03:09:10;;;;;;;2.88;1.25;;;;;;;3.44;100.00;99346.41;5046197;28;20045;-71
2023/01/09 03:11:41;;;;;;;4.82;1.30;;;;;;;3.41;100.00;99341.25;5046603;28;20047;-71
2023/01/09 03:14:11;;;;;;;4.20;1.50;;;;;;;3.40;100.00;99340.38;5042857;28;20041;-70
2023/01/09 03:16:37;;;;;;;2.85;1.50;;;;;;;3.37;100.00;99343.28;5028907;28;20029;-72
2023/01/09 03:19:06;;;;;;;7.45;1.73;;;;;;;3.39;100.00;99343.16;5027223;28;20033;-71
2023/01/09 03:21:33;;;;;;;3.30;1.40;;;;;;;3.39;100.00;99360.16;5028331;28;20045;-73
2023/01/09 03:24:00;;;;;;;4.18;1.35;;;;;;;3.37;100.00;99358.56;5027373;28;20065;-71
2023/01/09 03:26:30;;;;;;;6.15;1.70;;;;;;;3.32;100.00;99362.41;5031994;28;20531;-71
2023/01/09 03:28:56;;;;;;;8.25;2.13;;;;;;;3.30;100.00;99368.84;5029006;28;20496;-71
2023/01/09 03:31:22;;;;;;;5.38;1.77;;;;;;;3.29;100.00;99372.50;5045665;28;20416;-71
2023/01/09 03:33:47;;;;;;;2.50;1.48;;;;;;;3.30;100.00;99367.00;5033564;28;20021;-71
2023/01/09 03:36:15;;;;;;;2.42;1.70;;;;;;;3.28;100.00;99370.78;5047554;28;20045;-71
2023/01/09 03:38:40;;;;;;;3.70;1.83;;;;;;;3.27;100.00;99359.16;5030826;28;20052;-71
2023/01/09 03:41:06;;;;;;;5.50;1.90;;;;;;;3.26;100.00;99346.69;5032098;28;20071;-71
2023/01/09 03:43:32;;;;;;;4.05;2.03;;;;;;;3.27;100.00;99352.94;5032709;28;20039;-71
2023/01/09 03:45:58;;;;;;;6.50;1.92;;;;;;;3.26;100.00;99354.75;5031461;28;20109;-71
2023/01/09 03:48:23;;;;;;;3.58;1.60;;;;;;;3.28;100.00;99357.34;5015968;28;20047;-70
2023/01/09 03:50:51;;;;;;;7.03;2.00;;;;;;;3.31;100.00;99362.50;5034691;28;20040;-71
2023/01/09 03:53:17;;;;;;;6.32;2.08;;;;;;;3.37;100.00;99355.88;5036991;28;20132;-71
2023/01/09 03:55:45;;;;;;;7.97;2.05;;;;;;;3.41;100.00;99355.56;5031287;28;20107;-71
2023/01/09 03:58:12;;;;;;;9.48;2.20;;;;;;;3.48;100.00;99354.16;5030996;28;20095;-71
2023/01/09 04:00:38;;;;;;;4.95;1.80;;;;;;;3.54;100.00;99353.78;5042845;28;20037;-71
2023/01/09 04:03:04;;;;;;;4.85;1.67;;;;;;;3.64;100.00;99362.06;5032461;28;20167;-73
2023/01/09 04:05:29;;;;;;;9.23;2.05;;;;;;;3.67;100.00;99348.41;5050931;28;20134;-71
2023/01/09 04:07:54;;;;;;;6.80;1.80;;;;;;;3.70;100.00;99350.91;5040222;28;20024;-72
2023/01/09 04:10:20;;;;;;;10.32;2.17;;;;;;;3.70;100.00;99352.72;5031963;28;20175;-72
2023/01/09 04:12:45;;;;;;;3.72;1.90;;;;;;;3.70;100.00;99358.09;5031044;28;20036;-71
2023/01/09 04:15:10;;;;;;;6.28;2.38;;;;;;;3.71;100.00;99358.00;5030556;28;20051;-71
2023/01/09 04:17:36;;;;;;;7.50;1.88;;;;;;;3.76;100.00;99361.22;5032135;28;20060;-71
2023/01/09 04:20:02;;;;;;;4.15;1.70;;;;;;;3.81;100.00;99353.69;5031795;28;20039;-71
2023/01/09 04:22:27;;;;;;;2.53;1.30;;;;;;;3.89;100.00;99350.50;5032113;28;20107;-71
2023/01/09 04:24:52;;;;;;;5.75;1.83;;;;;;;3.97;100.00;99358.91;5031338;28;20488;-71
2023/01/09 04:27:18;;;;;;;6.57;1.77;;;;;;;4.05;100.00;99359.22;5030262;28;20511;-71
2023/01/09 04:29:43;;;;;;;4.78;1.88;;;;;;;4.10;100.00;99361.56;5031790;28;20445;-71
2023/01/09 04:32:08;;;;;;;7.70;1.63;;;;;;;4.16;100.00;99361.19;5046453;28;20048;-71
2023/01/09 04:34:34;;;;;;;6.07;1.73;;;;;;;4.26;100.00;99359.56;5038598;28;20409;-71
2023/01/09 04:36:59;;;;;;;5.97;1.90;;;;;;;4.30;100.00;99354.81;5031890;28;20037;-72
2023/01/09 04:39:24;;;;;;;8.15;2.05;;;;;;;4.37;100.00;99361.47;5014060;28;20037;-71
2023/01/09 04:41:50;;;;;;;6.40;2.60;;;;;;;4.41;100.00;99365.69;5031781;28;20063;-72
2023/01/09 04:44:21;;;;;;;4.57;1.65;;;;;;;4.48;100.00;99363.44;5030168;28;20071;-71
2023/01/09 04:46:47;;;;;;;3.10;1.63;;;;;;;4.49;100.00;99352.53;5030040;28;20458;-72
2023/01/09 04:49:13;;;;;;;3.95;1.65;;;;;;;4.55;100.00;99353.94;5039128;28;20345;-71
2023/01/09 04:51:38;;;;;;;4.60;1.63;;;;;;;4.54;100.00;99361.16;5050332;28;20087;-72
2023/01/09 04:54:04;;;;;;;6.07;1.88;;;;;;;4.58;100.00;99362.66;5031020;28;20087;-71
2023/01/09 04:56:30;;;;;;;6.95;1.80;;;;;;;4.65;100.00;99363.06;5031479;28;20048;-74
2023/01/09 04:58:55;;;;;;;5.22;1.60;;;;;;;4.69;100.00;99343.03;5034630;28;20052;-71
2023/01/09 05:01:20;;;;;;;11.07;2.03;;;;;;;4.73;100.00;99349.06;5040118;28;20116;-71
2023/01/09 05:03:46;;;;;;;2.60;1.60;;;;;;;4.75;100.00;99336.31;5029639;28;20120;-71
2023/01/09 05:06:11;;;;;;;4.90;1.83;;;;;;;4.76;100.00;99346.16;5031192;28;20149;-71
2023/01/09 05:08:37;;;;;;;4.05;1.77;;;;;;;4.78;100.00;99353.13;5030669;28;20041;-71
2023/01/09 05:11:02;;;;;;;4.10;1.80;;;;;;;4.83;100.00;99350.09;5029779;28;20025;-71
2023/01/09 05:13:28;;;;;;;5.75;2.08;;;;;;;4.86;100.00;99348.06;5029666;28;20045;-72
2023/01/09 05:15:53;;;;;;;8.68;1.83;;;;;;;4.90;100.00;99353.22;5029306;28;20350;-71
2023/01/09 05:18:18;;;;;;;6.68;1.73;;;;;;;4.92;100.00;99346.72;5029402;28;20037;-71
2023/01/09 05:20:44;;;;;;;5.47;1.80;;;;;;;4.96;100.00;99344.69;5012675;28;20114;-71
2023/01/09 05:23:09;;;;;;;8.35;2.15;;;;;;;4.98;100.00;99340.03;5029151;28;20041;-71
2023/01/09 05:25:34;;;;;;;6.80;1.60;;;;;;;4.99;100.00;99337.25;5030124;28;20053;-71
2023/01/09 05:28:00;;;;;;;10.68;2.42;;;;;;;5.02;100.00;99337.00;5030469;28;20029;-73
2023/01/09 05:30:26;;;;;;;9.90;2.33;;;;;;;5.05;100.00;99338.63;5029501;28;20507;-71
2023/01/09 05:32:51;;;;;;;4.85;1.70;;;;;;;5.07;100.00;99334.81;5041774;28;20446;-71
2023/01/09 05:35:16;;;;;;;9.25;1.98;;;;;;;5.09;100.00;99337.41;5015021;28;20070;-71
2023/01/09 05:37:42;;;;;;;11.15;2.25;;;;;;;5.11;100.00;99336.31;5030250;28;20041;-71
2023/01/09 05:40:08;;;;;;;5.00;1.65;;;;;;;5.15;100.00;99336.09;5028953;28;20521;-71
2023/01/09 05:42:33;;;;;;;4.55;1.88;;;;;;;5.18;100.00;99335.88;5030236;28;20520;-72
2023/01/09 05:44:59;;;;;;;6.82;1.95;;;;;;;5.20;100.00;99337.47;5034118;28;20112;-72
2023/01/09 05:47:24;;;;;;;5.38;1.75;;;;;;;5.18;100.00;99323.25;5030096;28;20037;-71
2023/01/09 05:49:49;;;;;;;13.88;2.00;;;;;;;5.22;100.00;99326.56;5030262;28;20080;-71
2023/01/09 05:52:15;;;;;;;3.67;1.67;;;;;;;5.23;100.00;99328.31;5029065;28;20071;-71
2023/01/09 05:54:40;;;;;;;9.20;1.95;;;;;;;5.23;100.00;99329.16;5029091;28;20033;-73
2023/01/09 05:57:05;;;;;;;5.13;1.75;;;;;;;5.27;100.00;99329.78;5029965;28;20044;-72
2023/01/09 05:59:31;;;;;;;5.93;1.85;;;;;;;5.30;100.00;99324.16;5028831;28;20037;-72
2023/01/09 06:01:56;;;;;;;6.95;2.17;;;;;;;5.31;100.00;99323.16;5030017;28;20481;-71
2023/01/09 06:04:21;;;;;;;7.90;1.90;;;;;;;5.33;100.00;99330.19;5030303;28;20041;-71
2023/01/09 06:06:47;;;;;;;6.95;3.05;;;;;;;5.35;100.00;99327.38;5028854;28;20104;-72
2023/01/09 06:09:12;;;;;;;4.97;1.67;;;;;;;5.38;100.00;99335.22;5048452;28;20037;-72
2023/01/09 06:11:38;;;;;;;7.40;1.65;;;;;;;5.38;100.00;99319.06;5048759;28;20378;-71
2023/01/09 06:14:06;;;;;;;6.35;1.40;;;;;;;5.39;100.00;99312.69;5044358;28;20473;-71
2023/01/09 06:16:31;;;;;;;4.05;1.80;;;;;;;5.38;100.00;99313.66;5028724;28;20037;-71
2023/01/09 06:18:57;;;;;;;5.88;2.00;;;;;;;5.39;100.00;99320.75;5035156;28;20040;-71
2023/01/09 06:21:22;;;;;;;4.88;1.90;;;;;;;5.39;100.00;99323.47;5048240;28;20097;-71
2023/01/09 06:23:48;;;;;;;5.10;1.95;;;;;;;5.41;100.00;99317.94;5030332;28;20064;-71
2023/01/09 06:26:13;;;;;;;4.63;2.22;;;;;;;5.45;100.00;99316.75;5011841;28;20030;-71
2023/01/09 06:28:39;;;;;;;6.85;2.33;;;;;;;5.47;100.00;99326.44;5028224;28;20037;-71
2023/01/09 06:31:05;;;;;;;12.02;1.90;;;;;;;5.49;100.00;99315.53;5029518;28;20033;-72
2023/01/09 06:33:31;;;;;;;7.95;2.65;;;;;;;5.49;100.00;99318.22;5026942;28;20043;-72
2023/01/09 06:35:56;;;;;;;13.18;2.70;;;;;;;5.50;100.00;99323.53;5012075;28;20541;-72
2023/01/09 06:38:22;;;;;;;5.50;2.03;;;;;;;5.54;100.00;99321.44;5029329;28;20041;-71
2023/01/09 06:40:49;;;;;;;6.32;1.65;;;;;;;5.55;100.00;99325.88;5027762;28;20139;-71
2023/01/09 06:43:14;;;;;;;10.18;1.80;;;;;;;5.58;100.00;99325.63;5028086;28;20049;-71
2023/01/09 06:45:42;;;;;;;17.33;2.67;;;;;;;5.62;100.00;99324.41;5029153;28;20030;-74
2023/01/09 06:48:08;;;;;;;5.38;2.25;;;;;;;5.66;100.00;99330.44;5011696;28;20033;-71
2023/01/09 06:50:33;;;;;;;4.20;1.40;;;;;;;5.68;100.00;99328.47;5027610;28;20044;-72
2023/01/09 06:52:58;;;;;;;12.25;2.17;;;;;;;5.70;100.00;99324.69;5029158;28;20041;-71
2023/01/09 06:55:25;;;;;;;10.65;2.00;;;;;;;5.73;100.00;99318.19;5011263;28;20068;-71
2023/01/09 06:57:51;;;;;;;11.30;1.60;;;;;;;5.75;100.00;99336.00;5027625;28;20401;-71
2023/01/09 07:00:17;;;;;;;7.80;2.03;;;;;;;5.77;100.00;99331.31;5029147;28;20025;-71
2023/01/09 07:02:42;;;;;;;8.45;2.80;;;;;;;5.79;100.00;99336.63;5048972;28;20041;-71
2023/01/09 07:05:10;;;;;;;6.15;1.98;;;;;;;5.80;100.00;99339.19;5032672;28;20146;-71
2023/01/09 07:07:36;;;;;;;6.75;2.35;;;;;;;5.80;100.00;99338.34;5027370;28;20075;-71
2023/01/09 07:10:01;;;;;;;6.85;1.77;;;;;;;5.84;100.00;99340.69;5028928;28;20488;-71
2023/01/09 07:12:27;;;;;;;10.57;2.05;;;;;;;5.86;100.00;99348.66;5029178;28;20112;-71
2023/01/09 07:14:52;;;;;;;5.15;1.25;;;;;;;5.86;100.00;99345.94;5026842;28;20083;-72
2023/01/09 07:17:17;;;;;;;3.17;1.60;;;;;;;5.87;100.00;99362.03;5028756;28;20041;-72
2023/01/09 07:19:43;;;;;;;3.53;1.83;;;;;;;5.85;100.00;99355.88;5022827;28;20064;-71
2023/01/09 07:22:09;;;;;;;6.00;1.80;;;;;;;5.85;100.00;99361.28;5043059;28;20071;-72
2023/01/09 07:24:34;;;;;;;10.20;1.77;;;;;;;5.83;100.00;99355.16;5010933;28;20029;-71
2023/01/09 07:27:00;;;;;;;7.00;2.17;;;;;;;5.86;100.00;99373.78;5042293;28;20040;-72
2023/01/09 07:29:26;;;;;;;6.15;1.77;;;;;;;5.84;100.00;99369.50;5047811;28;20040;-71
2023/01/09 07:31:51;;;;;;;4.25;1.70;;;;;;;5.83;100.00;99376.75;5041896;28;20043;-71
2023/01/09 07:34:16;;;;;;;11.90;2.20;;;;;;;5.81;100.00;99377.81;5036149;28;20104;-72
2023/01/09 07:36:45;;;;;;;4.88;1.65;;;;;;;5.78;100.00;99384.34;5048323;28;20075;-72
2023/01/09 07:39:11;;;;;;;7.00;1.88;;;;;;;5.77;100.00;99384.44;5030375;28;20047;-72
2023/01/09 07:41:36;;;;;;;9.23;3.00;;;;;;;5.78;100.00;99399.63;5048634;28;20061;-72
2023/01/09 07:44:01;;;;;;;7.88;2.10;;;;;;;5.76;100.00;99409.69;5047454;28;20049;-72
2023/01/09 07:46:27;;;;;;;7.45;2.35;;;;;;;5.76;100.00;99407.84;5011178;28;20034;-71
2023/01/09 07:48:53;;;;;;;9.80;3.00;;;;;;;5.75;100.00;99399.91;5027241;28;20433;-72
2023/01/09 07:51:18;;;;;;;7.22;2.15;;;;;;;5.74;100.00;99411.66;5028622;28;20034;-72
2023/01/09 07:53:44;;;;;;;16.95;2.13;;;;;;;5.74;100.00;99417.91;5026446;28;20490;-73
2023/01/09 07:56:09;;;;;;;9.27;2.13;;;;;;;5.75;100.00;99424.19;5028676;28;20521;-73
2023/01/09 07:58:34;;;;;;;12.07;2.47;;;;;;;5.75;100.00;99419.63;5026764;28;20033;-73
2023/01/09 08:01:00;;;;;;;7.65;1.90;;;;;;;5.73;100.00;99426.97;5028071;28;20060;-74
2023/01/09 08:03:25;;;;;;;8.02;2.10;;;;;;;5.74;100.00;99419.75;5028752;28;20048;-72
2023/01/09 08:05:51;;;;;;;10.95;2.72;;;;;;;5.76;100.00;99423.19;5027990;28;20044;-72
2023/01/09 08:08:16;;;;;;;9.23;2.53;;;;;;;5.77;100.00;99438.41;5028074;28;20107;-71
2023/01/09 08:10:42;;;;;;;7.18;2.28;;;;;;;5.76;100.00;99432.16;5027088;28;20141;-74
2023/01/09 08:13:07;;;;;;;5.18;2.80;;;;;;;5.76;100.00;99437.53;5028096;28;20033;-73
2023/01/09 08:15:33;;;;;;;7.38;2.83;;;;;;;5.78;100.00;99446.41;5028109;28;20037;-71
2023/01/09 08:17:58;;;;;;;4.63;1.88;;;;;;;5.77;100.00;99449.19;5028684;28;20477;-73
2023/01/09 08:20:24;;;;;;;12.70;2.63;;;;;;;5.76;100.00;99451.03;5044235;28;20365;-74
2023/01/09 08:22:52;;;;;;;8.43;3.83;;;;;;;5.79;100.00;99455.34;5038949;28;20069;-72
2023/01/09 08:25:17;;;;;;;6.53;2.25;;;;;;;5.80;100.00;99465.16;5028213;28;20480;-72
2023/01/09 08:27:43;;;;;;;8.68;2.58;;;;;;;5.79;100.00;99464.31;5030303;28;20076;-73
2023/01/09 08:30:09;;;;;;;5.50;2.72;;;;;;;5.81;100.00;99475.84;5031776;28;20060;-72
2023/01/09 08:32:35;;;;;;;6.75;2.58;;;;;;;5.80;100.00;99474.13;5041666;28;20130;-72
2023/01/09 08:35:00;;;;;;;3.92;2.50;;;;;;;5.80;100.00;99490.31;5037298;28;20100;-72
2023/01/09 08:37:25;;;;;;;4.28;2.53;;;;;;;5.81;100.00;99486.63;5030512;28;20121;-73
2023/01/09 08:39:52;;;;;;;6.03;2.95;;;;;;;5.81;100.00;99492.03;5029996;28;20080;-72
2023/01/09 08:47:45;;;;;;;9.52;2.83;;;;;;;5.83;100.00;99506.28;5031420;28;20040;-72
2023/01/09 08:50:12;;;;;;;5.72;2.70;;;;;;;5.86;100.00;99511.44;5030425;28;20037;-73
2023/01/09 08:52:37;;;;;;;7.22;2.88;;;;;;;5.87;100.00;99517.69;5029884;28;20076;-72
2023/01/09 08:55:03;;;;;;;12.18;2.40;;;;;;;5.88;100.00;99523.00;5030037;28;20095;-72
2023/01/09 08:57:28;;;;;;;7.65;3.33;;;;;;;5.86;100.00;99538.41;5030372;28;20040;-72
2023/01/09 08:59:54;;;;;;;6.80;2.78;;;;;;;5.88;100.00;99533.78;5031169;28;20042;-72
2023/01/09 09:02:19;;;;;;;7.65;3.15;;;;;;;5.88;100.00;99541.88;5029468;28;20033;-73
2023/01/09 09:04:46;;;;;;;9.52;3.30;;;;;;;5.89;100.00;99537.34;5029736;28;20029;-73
2023/01/09 09:07:11;;;;;;;5.15;3.17;;;;;;;5.90;100.00;99544.47;5031030;28;20090;-72
2023/01/09 09:09:36;;;;;;;5.38;3.13;;;;;;;5.89;100.00;99546.31;5029704;28;20037;-72
2023/01/09 09:12:02;;;;;;;9.32;4.55;;;;;;;5.91;100.00;99553.41;5030992;28;20045;-74
2023/01/09 09:17:11;;;;;;;13.48;3.88;;;;;;;5.97;100.00;99574.59;5029140;28;20041;-73
2023/01/09 09:19:38;;;;;;;6.95;2.97;;;;;;;5.97;100.00;99572.78;5031015;28;20048;-72
2023/01/09 09:22:04;;;;;;;7.40;3.58;;;;;;;5.98;100.00;99570.94;5030370;28;20056;-72
2023/01/09 09:24:29;;;;;;;6.50;3.80;;;;;;;5.99;100.00;99575.34;5030973;28;20064;-72
2023/01/09 09:26:54;;;;;;;10.30;3.63;;;;;;;5.99;100.00;99583.44;5030806;28;20076;-72
2023/01/09 09:29:20;;;;;;;7.07;3.20;;;;;;;6.01;100.00;99581.47;5030525;28;20022;-72
2023/01/09 09:31:45;;;;;;;8.20;3.17;;;;;;;6.04;100.00;99589.38;5029206;28;20099;-72
2023/01/09 09:34:12;;;;;;;8.93;4.07;;;;;;;6.02;100.00;99594.88;5030537;28;20480;-73
2023/01/09 09:36:37;;;;;;;10.18;3.72;;;;;;;6.04;100.00;99600.16;5030282;28;20038;-73
2023/01/09 09:39:02;;;;;;;8.65;3.38;;;;;;;6.07;100.00;99619.72;5029546;28;20198;-73
2023/01/09 09:44:42;;;;;;;6.03;2.90;;;;;;;6.11;100.00;99623.91;5030221;28;20072;-73
2023/01/09 09:47:37;;;;;;;5.90;3.22;;;;;;;6.13;100.00;99631.88;5030077;28;20418;-73
2023/01/09 09:50:14;;;;;;;10.65;3.03;;;;;;;6.12;100.00;99636.44;5028789;28;20369;-73
2023/01/09 09:53:05;;;;;;;7.53;3.08;;;;;;;6.14;100.00;99652.50;5030081;28;20532;-73
2023/01/09 09:55:33;;;;;;;8.07;3.58;;;;;;;6.14;100.00;99650.66;5030255;28;20370;-73
2023/01/09 09:58:03;;;;;;;11.68;3.70;;;;;;;6.13;100.00;99653.50;5030338;28;20473;-74
2023/01/09 10:00:28;;;;;;;11.88;3.55;;;;;;;6.19;100.00;99657.56;5012597;28;20056;-74
2023/01/09 10:03:01;;;;;;;8.48;3.63;;;;;;;6.19;100.00;99666.53;5029959;28;20524;-73
2023/01/09 10:05:38;;;;;;;6.13;3.75;;;;;;;6.10;100.00;99645.59;5030343;28;20034;-72
2023/01/09 10:08:14;;;;;;;11.70;3.85;;;;;;;6.12;100.00;99662.56;5029938;28;20049;-74
2023/01/09 10:10:48;;;;;;;7.75;3.60;;;;;;;6.09;100.00;99669.03;5028477;28;20048;-73
2023/01/09 10:16:11;;;;;;;5.50;3.53;;;;;;;6.25;100.00;99687.72;5029859;28;20029;-72
2023/01/09 10:18:52;;;;;;;13.13;4.22;;;;;;;6.26;100.00;99696.66;5029682;28;20041;-72
2023/01/09 10:21:32;;;;;;;10.90;4.28;;;;;;;6.22;100.00;99689.75;5029793;28;20473;-72
2023/01/09 10:24:12;;;;;;;10.05;4.22;;;;;;;6.17;100.00;99692.78;5028651;28;20495;-72
2023/01/09 10:26:42;;;;;;;10.88;4.10;;;;;;;6.17;100.00;99703.59;5028116;28;20484;-72
2023/01/09 10:29:24;;;;;;;7.80;4.18;;;;;;;6.20;100.00;99707.91;5029706;28;20056;-73
2023/01/09 10:31:55;;;;;;;5.18;4.15;;;;;;;6.23;100.00;99708.53;5033127;28;20056;-72
2023/01/09 10:34:44;;;;;;;13.55;4.57;;;;;;;6.24;100.00;99715.66;5041080;28;20530;-72
2023/01/09 10:37:14;;;;;;;6.50;4.00;;;;;;;6.25;100.00;99721.91;5029664;28;20094;-74
2023/01/09 10:39:47;;;;;;;8.48;3.90;;;;;;;6.27;100.00;99709.19;5048966;28;20080;-72
2023/01/09 10:42:18;;;;;;;;;;;;;;;6.32;100.00;99726.78;5048663;28;20052;-73
2023/01/09 10:45:19;;;;;;;7.65;3.60;;;;;;;6.35;100.00;99717.59;5049191;28;19917;-72
2023/01/09 10:47:45;;;;;;;5.93;4.50;;;;;;;6.39;100.00;99727.22;5028983;28;20049;-72
2023/01/09 10:50:25;;;;;;;10.02;4.97;;;;;;;6.46;100.00;99727.63;5042675;28;20533;-73
2023/01/09 10:52:53;;;;;;;9.35;3.90;;;;;;;6.56;100.00;99734.06;5040669;28;20061;-73
2023/01/09 10:55:38;;;;;;;11.52;4.10;;;;;;;6.65;100.00;99731.53;5029133;28;20468;-73
2023/01/09 10:58:16;;;;;;;6.90;3.50;;;;;;;6.74;100.00;99734.53;5027942;28;20049;-72
2023/01/09 11:00:43;;;;;;;9.70;4.65;;;;;;;6.81;100.00;99743.94;5031736;28;20044;-73
2023/01/09 11:03:14;;;;;;;13.18;4.70;;;;;;;6.83;100.00;99728.44;5047829;28;20041;-72
2023/01/09 11:05:40;;;;;;;11.15;5.68;;;;;;;6.90;100.00;99743.22;5030599;28;20048;-71
2023/01/09 11:08:20;;;;;;;7.93;3.95;;;;;;;6.94;100.00;99749.25;5029366;28;20041;-73
2023/01/09 11:10:51;;;;;;;21.75;5.20;;;;;;;7.00;100.00;99752.38;5029218;28;20041;-72
2023/01/09 11:13:21;;;;;;;9.70;4.55;;;;;;;7.04;100.00;99751.19;5011036;28;20439;-72
2023/01/09 11:16:21;;;;;;;11.57;4.55;;;;;;;7.09;100.00;99750.84;5032213;28;20090;-72
2023/01/09 11:18:51;;;;;;;7.65;4.65;;;;;;;7.18;100.00;99735.72;5044362;28;20069;-72
2023/01/09 11:21:38;;;;;;;12.98;5.00;;;;;;;7.32;100.00;99754.47;5028904;28;20087;-72
2023/01/09 11:24:19;;;;;;;12.70;5.40;;;;;;;7.35;100.00;99748.81;5028662;28;20116;-72
2023/01/09 11:26:50;;;;;;;10.73;4.43;;;;;;;7.39;100.00;99759.31;5028824;28;20045;-73
2023/01/09 11:29:18;;;;;;;14.43;5.22;;;;;;;7.44;100.00;99752.69;5011051;28;20037;-72
2023/01/09 11:31:53;;;;;;;10.95;5.35;;;;;;;7.48;100.00;99765.84;5028691;28;20033;-72
2023/01/09 11:34:22;;;;;;;11.57;4.65;;;;;;;7.48;100.00;99765.84;5027550;28;20112;-73
2023/01/09 11:36:50;;;;;;;11.70;5.10;;;;;;;7.43;100.00;99764.50;5028857;28;20369;-71
2023/01/09 11:39:23;;;;;;;15.73;4.70;;;;;;;7.40;100.00;99771.84;5028659;28;20488;-72
2023/01/09 11:41:54;;;;;;;10.00;5.25;;;;;;;7.44;100.00;99779.72;5027490;28;20033;-73
2023/01/09 11:44:20;;;;;;;10.50;5.13;;;;;;;7.47;100.00;99777.66;5035088;28;20045;-72
2023/01/09 11:46:46;;;;;;;9.45;5.45;;;;;;;7.48;100.00;99783.94;5027474;28;20393;-72
2023/01/09 11:49:12;;;;;;;10.98;5.13;;;;;;;7.49;100.00;99791.94;5028579;28;20025;-72
2023/01/09 11:51:38;;;;;;;11.02;5.68;;;;;;;7.43;100.00;99773.47;5027424;28;20041;-71
2023/01/09 11:54:15;;;;;;;13.43;6.05;;;;;;;7.37;100.00;99777.50;5045612;28;20108;-72
2023/01/09 11:56:42;;;;;;;17.02;5.80;;;;;;;7.37;100.00;99782.06;5048655;28;20041;-72